Bull Valley, Illinois
Current Conditions -  °F | °C
As of 6:22 PM on Friday 24 Oct 2014 (Local Time) from KUGN Reporting Station
Haze Haze  
Wind Chill: 50°   Ceiling: Unl
Heat Index: 50°   Visibility: 2mi
Dew Point: 48°   Wind: 0mph
Humidity: 93%   Direction: NA
Pressure: 29.94"   Gusts: NA
Location:  42.359°N, 88.2783°W
Report Text: KUGN 242322Z 00000KT 2SM BR SCT095 10/09 A2994 RMK AO2 T01000089
Loading
Personal Weather Stations






























Interactive Weather Map
Tropical Storm Tracking
New forecast layout! Learn more

10-Day Weather Forecast

Advertisements
Track Severe Weather on mobile